sensor_id;sensor_type;location;lat;lon;timestamp;temperature;humidity
51476;DHT22;37554;50.362;7.568;2023-03-01T00:01:15;14.50;35.70
51476;DHT22;37554;50.362;7.568;2023-03-01T00:03:42;14.50;35.80
51476;DHT22;37554;50.362;7.568;2023-03-01T00:06:08;14.50;35.80
51476;DHT22;37554;50.362;7.568;2023-03-01T00:08:34;14.50;35.90
51476;DHT22;37554;50.362;7.568;2023-03-01T00:11:04;14.40;35.90
51476;DHT22;37554;50.362;7.568;2023-03-01T00:13:30;14.40;35.90
51476;DHT22;37554;50.362;7.568;2023-03-01T00:15:56;14.30;36.00
51476;DHT22;37554;50.362;7.568;2023-03-01T00:18:21;14.30;36.10
51476;DHT22;37554;50.362;7.568;2023-03-01T00:20:55;14.30;36.10
51476;DHT22;37554;50.362;7.568;2023-03-01T00:23:21;14.30;36.20
51476;DHT22;37554;50.362;7.568;2023-03-01T00:25:46;14.30;36.60
51476;DHT22;37554;50.362;7.568;2023-03-01T00:28:12;14.20;36.20
51476;DHT22;37554;50.362;7.568;2023-03-01T00:30:38;14.20;36.20
51476;DHT22;37554;50.362;7.568;2023-03-01T00:33:04;14.20;36.30
51476;DHT22;37554;50.362;7.568;2023-03-01T00:35:32;14.20;36.40
51476;DHT22;37554;50.362;7.568;2023-03-01T00:37:57;14.10;36.30
51476;DHT22;37554;50.362;7.568;2023-03-01T00:40:24;14.10;36.40
51476;DHT22;37554;50.362;7.568;2023-03-01T00:42:50;14.10;36.50
51476;DHT22;37554;50.362;7.568;2023-03-01T00:45:16;14.00;36.50
51476;DHT22;37554;50.362;7.568;2023-03-01T00:47:41;14.00;36.70
51476;DHT22;37554;50.362;7.568;2023-03-01T00:50:08;13.90;36.70
51476;DHT22;37554;50.362;7.568;2023-03-01T00:52:34;13.90;36.70
51476;DHT22;37554;50.362;7.568;2023-03-01T00:54:59;13.90;36.80
51476;DHT22;37554;50.362;7.568;2023-03-01T00:57:25;13.90;36.80
51476;DHT22;37554;50.362;7.568;2023-03-01T00:59:50;13.80;36.80
51476;DHT22;37554;50.362;7.568;2023-03-01T01:02:18;13.80;36.90
51476;DHT22;37554;50.362;7.568;2023-03-01T01:04:44;13.80;36.90
51476;DHT22;37554;50.362;7.568;2023-03-01T01:07:10;13.80;37.00
51476;DHT22;37554;50.362;7.568;2023-03-01T01:09:35;13.70;37.00
51476;DHT22;37554;50.362;7.568;2023-03-01T01:12:02;13.70;37.10
51476;DHT22;37554;50.362;7.568;2023-03-01T01:14:27;13.70;37.10
51476;DHT22;37554;50.362;7.568;2023-03-01T01:16:53;13.70;37.10
51476;DHT22;37554;50.362;7.568;2023-03-01T01:19:19;13.60;37.20
51476;DHT22;37554;50.362;7.568;2023-03-01T01:21:45;13.60;37.60
51476;DHT22;37554;50.362;7.568;2023-03-01T01:24:11;13.60;37.30
51476;DHT22;37554;50.362;7.568;2023-03-01T01:26:37;13.60;37.30
51476;DHT22;37554;50.362;7.568;2023-03-01T01:29:04;13.50;37.30
51476;DHT22;37554;50.362;7.568;2023-03-01T01:31:31;13.50;37.40
51476;DHT22;37554;50.362;7.568;2023-03-01T01:33:59;13.50;37.40
51476;DHT22;37554;50.362;7.568;2023-03-01T01:36:24;13.40;37.40
51476;DHT22;37554;50.362;7.568;2023-03-01T01:38:50;13.40;37.40
51476;DHT22;37554;50.362;7.568;2023-03-01T01:41:16;13.40;37.50
51476;DHT22;37554;50.362;7.568;2023-03-01T01:43:48;13.40;37.50
51476;DHT22;37554;50.362;7.568;2023-03-01T01:48:49;13.30;37.60
51476;DHT22;37554;50.362;7.568;2023-03-01T01:51:25;13.30;37.60
51476;DHT22;37554;50.362;7.568;2023-03-01T01:53:56;13.30;37.70
51476;DHT22;37554;50.362;7.568;2023-03-01T01:56:24;13.30;37.70
51476;DHT22;37554;50.362;7.568;2023-03-01T01:58:50;13.20;37.70
51476;DHT22;37554;50.362;7.568;2023-03-01T02:01:16;13.20;37.70
51476;DHT22;37554;50.362;7.568;2023-03-01T02:03:43;13.20;37.80
51476;DHT22;37554;50.362;7.568;2023-03-01T02:06:20;13.20;37.70
51476;DHT22;37554;50.362;7.568;2023-03-01T02:08:49;13.10;37.70
51476;DHT22;37554;50.362;7.568;2023-03-01T02:11:17;13.10;37.70
51476;DHT22;37554;50.362;7.568;2023-03-01T02:13:44;13.10;37.70
51476;DHT22;37554;50.362;7.568;2023-03-01T02:16:14;13.00;37.70
51476;DHT22;37554;50.362;7.568;2023-03-01T02:18:41;13.00;37.70
51476;DHT22;37554;50.362;7.568;2023-03-01T02:23:53;13.00;37.90
51476;DHT22;37554;50.362;7.568;2023-03-01T02:26:26;12.90;37.70
51476;DHT22;37554;50.362;7.568;2023-03-01T02:28:53;12.90;37.80
51476;DHT22;37554;50.362;7.568;2023-03-01T02:31:20;12.90;37.90
51476;DHT22;37554;50.362;7.568;2023-03-01T02:34:07;12.90;37.90
51476;DHT22;37554;50.362;7.568;2023-03-01T02:36:39;12.80;37.80
51476;DHT22;37554;50.362;7.568;2023-03-01T02:39:07;12.80;38.00
51476;DHT22;37554;50.362;7.568;2023-03-01T02:41:36;12.80;38.00
51476;DHT22;37554;50.362;7.568;2023-03-01T02:44:03;12.80;38.10
51476;DHT22;37554;50.362;7.568;2023-03-01T02:46:29;12.70;38.20
51476;DHT22;37554;50.362;7.568;2023-03-01T02:48:57;12.80;38.30
51476;DHT22;37554;50.362;7.568;2023-03-01T02:56:39;12.70;38.50
51476;DHT22;37554;50.362;7.568;2023-03-01T02:59:06;12.70;38.50
51476;DHT22;37554;50.362;7.568;2023-03-01T03:01:32;12.70;38.60
51476;DHT22;37554;50.362;7.568;2023-03-01T03:04:05;12.60;38.60
51476;DHT22;37554;50.362;7.568;2023-03-01T03:06:31;12.60;38.60
51476;DHT22;37554;50.362;7.568;2023-03-01T03:08:57;12.60;38.60
51476;DHT22;37554;50.362;7.568;2023-03-01T03:11:23;12.60;38.70
51476;DHT22;37554;50.362;7.568;2023-03-01T03:13:49;12.50;38.70
51476;DHT22;37554;50.362;7.568;2023-03-01T03:16:15;12.50;38.80
51476;DHT22;37554;50.362;7.568;2023-03-01T03:18:40;12.50;38.90
51476;DHT22;37554;50.362;7.568;2023-03-01T03:21:10;12.50;38.90
51476;DHT22;37554;50.362;7.568;2023-03-01T03:23:36;12.50;38.90
51476;DHT22;37554;50.362;7.568;2023-03-01T03:26:02;12.40;38.90
51476;DHT22;37554;50.362;7.568;2023-03-01T03:28:30;12.40;38.90
51476;DHT22;37554;50.362;7.568;2023-03-01T03:30:56;12.40;39.00
51476;DHT22;37554;50.362;7.568;2023-03-01T03:33:22;12.40;39.00
51476;DHT22;37554;50.362;7.568;2023-03-01T03:35:49;12.30;39.00
51476;DHT22;37554;50.362;7.568;2023-03-01T03:38:17;12.40;39.00
51476;DHT22;37554;50.362;7.568;2023-03-01T03:40:48;12.30;39.00
51476;DHT22;37554;50.362;7.568;2023-03-01T03:43:19;12.30;39.00
51476;DHT22;37554;50.362;7.568;2023-03-01T03:45:46;12.30;39.10
51476;DHT22;37554;50.362;7.568;2023-03-01T03:48:12;12.30;39.00
51476;DHT22;37554;50.362;7.568;2023-03-01T03:50:39;12.30;39.00
51476;DHT22;37554;50.362;7.568;2023-03-01T03:53:08;12.20;39.00
51476;DHT22;37554;50.362;7.568;2023-03-01T03:55:35;12.20;39.10
51476;DHT22;37554;50.362;7.568;2023-03-01T03:58:02;12.20;39.00
51476;DHT22;37554;50.362;7.568;2023-03-01T04:00:36;12.20;39.10
51476;DHT22;37554;50.362;7.568;2023-03-01T04:03:02;12.10;39.00
51476;DHT22;37554;50.362;7.568;2023-03-01T04:05:28;12.10;39.00
51476;DHT22;37554;50.362;7.568;2023-03-01T04:07:54;12.10;39.00
51476;DHT22;37554;50.362;7.568;2023-03-01T04:10:27;12.10;39.10
51476;DHT22;37554;50.362;7.568;2023-03-01T04:12:53;12.10;39.00
51476;DHT22;37554;50.362;7.568;2023-03-01T04:15:22;12.00;39.10
51476;DHT22;37554;50.362;7.568;2023-03-01T04:17:50;12.00;39.10
51476;DHT22;37554;50.362;7.568;2023-03-01T04:20:19;12.00;39.10
51476;DHT22;37554;50.362;7.568;2023-03-01T04:22:55;12.00;39.20
51476;DHT22;37554;50.362;7.568;2023-03-01T04:25:23;12.00;39.20
51476;DHT22;37554;50.362;7.568;2023-03-01T04:27:48;12.00;39.20
51476;DHT22;37554;50.362;7.568;2023-03-01T04:30:14;12.00;39.20
51476;DHT22;37554;50.362;7.568;2023-03-01T04:32:40;11.90;39.20
51476;DHT22;37554;50.362;7.568;2023-03-01T04:35:06;11.90;39.20
51476;DHT22;37554;50.362;7.568;2023-03-01T04:37:31;11.90;39.30
51476;DHT22;37554;50.362;7.568;2023-03-01T04:39:57;11.90;39.30
51476;DHT22;37554;50.362;7.568;2023-03-01T04:42:23;11.90;39.30
51476;DHT22;37554;50.362;7.568;2023-03-01T04:44:48;11.90;39.20
51476;DHT22;37554;50.362;7.568;2023-03-01T04:47:16;11.80;39.20
51476;DHT22;37554;50.362;7.568;2023-03-01T04:49:42;11.80;39.30
51476;DHT22;37554;50.362;7.568;2023-03-01T04:52:07;11.80;39.30
51476;DHT22;37554;50.362;7.568;2023-03-01T04:54:35;11.80;39.30
51476;DHT22;37554;50.362;7.568;2023-03-01T04:57:02;11.80;39.40
51476;DHT22;37554;50.362;7.568;2023-03-01T04:59:28;11.70;39.30
51476;DHT22;37554;50.362;7.568;2023-03-01T05:01:55;11.70;39.30
51476;DHT22;37554;50.362;7.568;2023-03-01T05:04:22;11.70;39.30
51476;DHT22;37554;50.362;7.568;2023-03-01T05:06:47;11.70;39.40
51476;DHT22;37554;50.362;7.568;2023-03-01T05:09:13;11.70;39.40
51476;DHT22;37554;50.362;7.568;2023-03-01T05:11:39;11.70;39.40
51476;DHT22;37554;50.362;7.568;2023-03-01T05:14:05;11.70;40.10
51476;DHT22;37554;50.362;7.568;2023-03-01T05:16:31;11.60;40.10
51476;DHT22;37554;50.362;7.568;2023-03-01T05:18:58;11.60;39.50
51476;DHT22;37554;50.362;7.568;2023-03-01T05:21:23;11.60;39.50
51476;DHT22;37554;50.362;7.568;2023-03-01T05:23:49;11.60;39.50
51476;DHT22;37554;50.362;7.568;2023-03-01T05:26:17;11.50;39.50
51476;DHT22;37554;50.362;7.568;2023-03-01T05:28:43;11.50;39.50
51476;DHT22;37554;50.362;7.568;2023-03-01T05:31:09;11.40;39.60
51476;DHT22;37554;50.362;7.568;2023-03-01T05:33:39;11.40;39.60
51476;DHT22;37554;50.362;7.568;2023-03-01T05:36:08;11.40;39.70
51476;DHT22;37554;50.362;7.568;2023-03-01T05:38:35;11.40;39.80
51476;DHT22;37554;50.362;7.568;2023-03-01T05:41:01;11.40;39.80
51476;DHT22;37554;50.362;7.568;2023-03-01T05:43:30;11.50;39.90
51476;DHT22;37554;50.362;7.568;2023-03-01T05:45:58;11.50;40.00
51476;DHT22;37554;50.362;7.568;2023-03-01T05:48:23;11.50;40.00
51476;DHT22;37554;50.362;7.568;2023-03-01T05:50:49;11.50;39.90
51476;DHT22;37554;50.362;7.568;2023-03-01T05:53:17;11.50;39.90
51476;DHT22;37554;50.362;7.568;2023-03-01T05:55:45;11.60;39.90
51476;DHT22;37554;50.362;7.568;2023-03-01T05:58:14;11.60;39.90
51476;DHT22;37554;50.362;7.568;2023-03-01T06:00:41;11.60;39.90
51476;DHT22;37554;50.362;7.568;2023-03-01T06:03:10;11.60;39.90
51476;DHT22;37554;50.362;7.568;2023-03-01T06:05:36;11.60;39.80
51476;DHT22;37554;50.362;7.568;2023-03-01T06:08:03;11.60;39.90
51476;DHT22;37554;50.362;7.568;2023-03-01T06:10:29;11.60;40.00
51476;DHT22;37554;50.362;7.568;2023-03-01T06:12:55;11.60;39.90
51476;DHT22;37554;50.362;7.568;2023-03-01T06:15:22;11.60;40.00
51476;DHT22;37554;50.362;7.568;2023-03-01T06:17:48;11.60;39.90
51476;DHT22;37554;50.362;7.568;2023-03-01T06:20:19;11.50;39.90
51476;DHT22;37554;50.362;7.568;2023-03-01T06:22:46;11.60;39.90
51476;DHT22;37554;50.362;7.568;2023-03-01T06:25:14;11.50;39.90
51476;DHT22;37554;50.362;7.568;2023-03-01T06:27:40;11.50;40.00
51476;DHT22;37554;50.362;7.568;2023-03-01T06:30:07;11.50;40.00
51476;DHT22;37554;50.362;7.568;2023-03-01T06:32:33;11.50;40.10
51476;DHT22;37554;50.362;7.568;2023-03-01T06:34:58;11.40;40.10
51476;DHT22;37554;50.362;7.568;2023-03-01T06:37:25;11.40;40.10
51476;DHT22;37554;50.362;7.568;2023-03-01T06:39:51;11.40;40.10
51476;DHT22;37554;50.362;7.568;2023-03-01T06:42:16;11.40;40.10
51476;DHT22;37554;50.362;7.568;2023-03-01T06:44:43;11.40;40.10
51476;DHT22;37554;50.362;7.568;2023-03-01T06:47:09;11.40;40.20
51476;DHT22;37554;50.362;7.568;2023-03-01T06:49:35;10.90;39.10
51476;DHT22;37554;50.362;7.568;2023-03-01T06:52:00;10.10;39.80
51476;DHT22;37554;50.362;7.568;2023-03-01T06:54:26;10.00;42.00
51476;DHT22;37554;50.362;7.568;2023-03-01T06:56:52;10.20;42.90
51476;DHT22;37554;50.362;7.568;2023-03-01T06:59:18;10.40;42.90
51476;DHT22;37554;50.362;7.568;2023-03-01T07:01:43;10.60;42.60
51476;DHT22;37554;50.362;7.568;2023-03-01T07:04:10;10.80;42.60
51476;DHT22;37554;50.362;7.568;2023-03-01T07:06:36;10.90;42.40
51476;DHT22;37554;50.362;7.568;2023-03-01T07:09:11;11.10;42.30
51476;DHT22;37554;50.362;7.568;2023-03-01T07:11:37;11.20;42.10
51476;DHT22;37554;50.362;7.568;2023-03-01T07:14:02;11.40;42.00
51476;DHT22;37554;50.362;7.568;2023-03-01T07:16:28;11.50;41.70
51476;DHT22;37554;50.362;7.568;2023-03-01T07:18:54;11.60;41.50
51476;DHT22;37554;50.362;7.568;2023-03-01T07:21:20;11.60;41.40
51476;DHT22;37554;50.362;7.568;2023-03-01T07:23:47;11.70;41.30
51476;DHT22;37554;50.362;7.568;2023-03-01T07:26:13;11.70;41.10
51476;DHT22;37554;50.362;7.568;2023-03-01T07:28:39;11.80;41.10
51476;DHT22;37554;50.362;7.568;2023-03-01T07:31:05;11.90;41.30
51476;DHT22;37554;50.362;7.568;2023-03-01T07:33:31;12.00;42.10
51476;DHT22;37554;50.362;7.568;2023-03-01T07:36:02;12.00;42.10
51476;DHT22;37554;50.362;7.568;2023-03-01T07:38:28;12.00;41.90
51476;DHT22;37554;50.362;7.568;2023-03-01T07:40:58;12.00;41.80
51476;DHT22;37554;50.362;7.568;2023-03-01T07:43:25;12.00;41.60
51476;DHT22;37554;50.362;7.568;2023-03-01T07:45:50;12.00;41.60
51476;DHT22;37554;50.362;7.568;2023-03-01T07:48:17;12.00;41.60
51476;DHT22;37554;50.362;7.568;2023-03-01T07:50:42;12.00;41.60
51476;DHT22;37554;50.362;7.568;2023-03-01T07:53:09;12.00;41.40
51476;DHT22;37554;50.362;7.568;2023-03-01T07:55:35;12.00;41.50
51476;DHT22;37554;50.362;7.568;2023-03-01T07:58:00;12.00;41.30
51476;DHT22;37554;50.362;7.568;2023-03-01T08:00:29;12.00;41.30
51476;DHT22;37554;50.362;7.568;2023-03-01T08:02:58;12.00;41.20
51476;DHT22;37554;50.362;7.568;2023-03-01T08:05:24;12.00;41.10
51476;DHT22;37554;50.362;7.568;2023-03-01T08:07:49;12.00;41.10
51476;DHT22;37554;50.362;7.568;2023-03-01T08:10:16;12.00;41.10
51476;DHT22;37554;50.362;7.568;2023-03-01T08:12:41;12.00;41.10
51476;DHT22;37554;50.362;7.568;2023-03-01T08:15:10;12.10;41.10
51476;DHT22;37554;50.362;7.568;2023-03-01T08:17:36;12.10;41.00
51476;DHT22;37554;50.362;7.568;2023-03-01T08:20:02;12.20;40.90
51476;DHT22;37554;50.362;7.568;2023-03-01T08:22:31;12.20;40.90
51476;DHT22;37554;50.362;7.568;2023-03-01T08:24:57;12.30;40.80
51476;DHT22;37554;50.362;7.568;2023-03-01T08:27:22;12.40;40.80
51476;DHT22;37554;50.362;7.568;2023-03-01T08:29:48;12.50;40.60
51476;DHT22;37554;50.362;7.568;2023-03-01T08:32:14;12.60;40.50
51476;DHT22;37554;50.362;7.568;2023-03-01T08:34:40;12.60;40.30
51476;DHT22;37554;50.362;7.568;2023-03-01T08:37:08;12.70;40.30
51476;DHT22;37554;50.362;7.568;2023-03-01T08:39:40;12.70;40.10
51476;DHT22;37554;50.362;7.568;2023-03-01T08:42:11;12.80;40.20
51476;DHT22;37554;50.362;7.568;2023-03-01T08:44:37;12.90;40.60
51476;DHT22;37554;50.362;7.568;2023-03-01T08:47:26;13.00;40.70
51476;DHT22;37554;50.362;7.568;2023-03-01T08:49:51;13.10;41.30
51476;DHT22;37554;50.362;7.568;2023-03-01T08:52:19;13.30;40.60
51476;DHT22;37554;50.362;7.568;2023-03-01T08:54:45;13.40;40.40
51476;DHT22;37554;50.362;7.568;2023-03-01T08:57:10;13.60;40.10
51476;DHT22;37554;50.362;7.568;2023-03-01T08:59:36;13.80;40.60
51476;DHT22;37554;50.362;7.568;2023-03-01T09:02:04;13.90;39.60
51476;DHT22;37554;50.362;7.568;2023-03-01T09:04:30;14.10;39.40
51476;DHT22;37554;50.362;7.568;2023-03-01T09:06:56;14.30;39.40
51476;DHT22;37554;50.362;7.568;2023-03-01T09:09:27;14.60;39.20
51476;DHT22;37554;50.362;7.568;2023-03-01T09:11:52;14.80;39.00
51476;DHT22;37554;50.362;7.568;2023-03-01T09:14:18;15.10;38.80
51476;DHT22;37554;50.362;7.568;2023-03-01T09:16:44;15.30;38.50
51476;DHT22;37554;50.362;7.568;2023-03-01T09:19:10;15.60;38.20
51476;DHT22;37554;50.362;7.568;2023-03-01T09:21:37;15.80;37.90
51476;DHT22;37554;50.362;7.568;2023-03-01T09:24:03;16.10;37.70
51476;DHT22;37554;50.362;7.568;2023-03-01T09:26:28;16.30;37.40
51476;DHT22;37554;50.362;7.568;2023-03-01T09:28:55;16.60;37.20
51476;DHT22;37554;50.362;7.568;2023-03-01T09:31:22;16.90;36.90
51476;DHT22;37554;50.362;7.568;2023-03-01T09:33:50;17.20;36.60
51476;DHT22;37554;50.362;7.568;2023-03-01T09:36:19;17.50;36.30
51476;DHT22;37554;50.362;7.568;2023-03-01T09:38:46;17.70;36.00
51476;DHT22;37554;50.362;7.568;2023-03-01T09:43:53;18.40;35.40
51476;DHT22;37554;50.362;7.568;2023-03-01T09:46:25;18.70;35.10
51476;DHT22;37554;50.362;7.568;2023-03-01T09:49:03;19.00;34.80
51476;DHT22;37554;50.362;7.568;2023-03-01T09:51:32;19.30;34.50
51476;DHT22;37554;50.362;7.568;2023-03-01T09:53:58;19.60;34.20
51476;DHT22;37554;50.362;7.568;2023-03-01T09:56:40;19.90;33.90
51476;DHT22;37554;50.362;7.568;2023-03-01T10:02:00;20.50;33.30
51476;DHT22;37554;50.362;7.568;2023-03-01T10:10:51;21.60;32.10
51476;DHT22;37554;50.362;7.568;2023-03-01T10:15:54;22.20;32.20
51476;DHT22;37554;50.362;7.568;2023-03-01T10:18:32;22.40;32.30
51476;DHT22;37554;50.362;7.568;2023-03-01T10:21:00;22.70;32.50
51476;DHT22;37554;50.362;7.568;2023-03-01T10:23:32;22.80;32.60
51476;DHT22;37554;50.362;7.568;2023-03-01T10:29:10;23.30;33.10
51476;DHT22;37554;50.362;7.568;2023-03-01T10:31:48;23.50;33.00
51476;DHT22;37554;50.362;7.568;2023-03-01T10:34:18;23.80;33.10
51476;DHT22;37554;50.362;7.568;2023-03-01T10:36:48;24.00;33.00
51476;DHT22;37554;50.362;7.568;2023-03-01T10:39:19;24.20;33.00
51476;DHT22;37554;50.362;7.568;2023-03-01T10:42:01;24.40;32.80
51476;DHT22;37554;50.362;7.568;2023-03-01T10:44:46;24.60;32.70
51476;DHT22;37554;50.362;7.568;2023-03-01T10:47:24;24.90;32.70
51476;DHT22;37554;50.362;7.568;2023-03-01T10:50:03;25.10;32.50
51476;DHT22;37554;50.362;7.568;2023-03-01T10:52:35;25.30;32.30
51476;DHT22;37554;50.362;7.568;2023-03-01T10:55:34;25.60;32.30
51476;DHT22;37554;50.362;7.568;2023-03-01T10:58:29;25.80;32.10
51476;DHT22;37554;50.362;7.568;2023-03-01T11:00:58;26.00;31.80
51476;DHT22;37554;50.362;7.568;2023-03-01T11:03:28;26.30;31.90
51476;DHT22;37554;50.362;7.568;2023-03-01T11:05:58;26.40;31.60
51476;DHT22;37554;50.362;7.568;2023-03-01T11:08:41;26.60;31.50
51476;DHT22;37554;50.362;7.568;2023-03-01T11:11:18;26.90;31.30
51476;DHT22;37554;50.362;7.568;2023-03-01T11:14:18;27.00;30.20
51476;DHT22;37554;50.362;7.568;2023-03-01T11:16:48;26.80;29.40
51476;DHT22;37554;50.362;7.568;2023-03-01T11:19:17;26.70;29.60
51476;DHT22;37554;50.362;7.568;2023-03-01T11:22:07;26.60;28.90
51476;DHT22;37554;50.362;7.568;2023-03-01T11:24:42;26.70;27.80
51476;DHT22;37554;50.362;7.568;2023-03-01T11:27:28;26.80;28.20
51476;DHT22;37554;50.362;7.568;2023-03-01T11:32:47;27.30;27.40
51476;DHT22;37554;50.362;7.568;2023-03-01T11:35:25;27.70;26.80
51476;DHT22;37554;50.362;7.568;2023-03-01T11:38:16;28.00;26.40
51476;DHT22;37554;50.362;7.568;2023-03-01T11:40:49;28.30;26.40
51476;DHT22;37554;50.362;7.568;2023-03-01T11:56:57;29.20;25.60
51476;DHT22;37554;50.362;7.568;2023-03-01T11:59:45;29.00;25.50
51476;DHT22;37554;50.362;7.568;2023-03-01T12:08:00;28.40;25.80
51476;DHT22;37554;50.362;7.568;2023-03-01T12:10:38;28.20;25.40
51476;DHT22;37554;50.362;7.568;2023-03-01T12:19:07;27.70;25.40
51476;DHT22;37554;50.362;7.568;2023-03-01T12:24:43;27.50;26.00
51476;DHT22;37554;50.362;7.568;2023-03-01T12:32:40;27.40;25.70
51476;DHT22;37554;50.362;7.568;2023-03-01T12:38:47;27.30;25.20
51476;DHT22;37554;50.362;7.568;2023-03-01T12:49:33;27.20;25.60
51476;DHT22;37554;50.362;7.568;2023-03-01T12:54:41;27.40;25.30
51476;DHT22;37554;50.362;7.568;2023-03-01T12:57:33;27.40;25.60
51476;DHT22;37554;50.362;7.568;2023-03-01T13:00:30;27.40;25.00
51476;DHT22;37554;50.362;7.568;2023-03-01T13:03:20;27.40;25.10
51476;DHT22;37554;50.362;7.568;2023-03-01T13:06:17;27.30;24.60
51476;DHT22;37554;50.362;7.568;2023-03-01T13:08:55;27.30;24.70
51476;DHT22;37554;50.362;7.568;2023-03-01T13:11:23;26.60;25.00
51476;DHT22;37554;50.362;7.568;2023-03-01T13:13:50;25.80;25.30
51476;DHT22;37554;50.362;7.568;2023-03-01T13:19:09;24.70;25.70
51476;DHT22;37554;50.362;7.568;2023-03-01T13:21:37;25.30;25.70
51476;DHT22;37554;50.362;7.568;2023-03-01T13:24:03;26.10;25.40
51476;DHT22;37554;50.362;7.568;2023-03-01T13:26:29;26.80;25.10
51476;DHT22;37554;50.362;7.568;2023-03-01T13:28:58;27.40;24.80
51476;DHT22;37554;50.362;7.568;2023-03-01T13:33:55;28.20;24.50
51476;DHT22;37554;50.362;7.568;2023-03-01T13:39:02;28.70;24.30
51476;DHT22;37554;50.362;7.568;2023-03-01T13:46:47;29.00;24.60
51476;DHT22;37554;50.362;7.568;2023-03-01T13:49:16;29.10;24.50
51476;DHT22;37554;50.362;7.568;2023-03-01T13:51:46;29.20;24.30
51476;DHT22;37554;50.362;7.568;2023-03-01T13:54:15;29.10;24.20
51476;DHT22;37554;50.362;7.568;2023-03-01T13:56:41;29.00;24.20
51476;DHT22;37554;50.362;7.568;2023-03-01T13:59:17;29.00;24.30
51476;DHT22;37554;50.362;7.568;2023-03-01T14:01:43;29.00;24.20
51476;DHT22;37554;50.362;7.568;2023-03-01T14:04:38;28.90;24.30
51476;DHT22;37554;50.362;7.568;2023-03-01T14:07:16;28.90;23.90
51476;DHT22;37554;50.362;7.568;2023-03-01T14:09:44;28.80;24.20
51476;DHT22;37554;50.362;7.568;2023-03-01T14:12:44;28.80;24.30
51476;DHT22;37554;50.362;7.568;2023-03-01T14:15:35;28.70;24.20
51476;DHT22;37554;50.362;7.568;2023-03-01T14:18:29;28.60;24.30
51476;DHT22;37554;50.362;7.568;2023-03-01T14:20:58;28.50;24.40
51476;DHT22;37554;50.362;7.568;2023-03-01T14:23:24;28.40;24.80
51476;DHT22;37554;50.362;7.568;2023-03-01T14:25:54;28.20;24.80
51476;DHT22;37554;50.362;7.568;2023-03-01T14:30:54;28.10;24.90
51476;DHT22;37554;50.362;7.568;2023-03-01T14:33:24;28.10;25.00
51476;DHT22;37554;50.362;7.568;2023-03-01T14:35:56;28.10;25.10
51476;DHT22;37554;50.362;7.568;2023-03-01T14:38:28;28.10;25.10
51476;DHT22;37554;50.362;7.568;2023-03-01T14:40:58;28.00;25.20
51476;DHT22;37554;50.362;7.568;2023-03-01T14:43:24;28.00;25.20
51476;DHT22;37554;50.362;7.568;2023-03-01T14:45:54;27.90;25.00
51476;DHT22;37554;50.362;7.568;2023-03-01T14:48:20;27.90;25.00
51476;DHT22;37554;50.362;7.568;2023-03-01T14:50:46;27.80;24.80
51476;DHT22;37554;50.362;7.568;2023-03-01T14:53:21;27.70;24.80
51476;DHT22;37554;50.362;7.568;2023-03-01T14:55:56;27.60;25.00
51476;DHT22;37554;50.362;7.568;2023-03-01T14:58:24;27.50;25.00
51476;DHT22;37554;50.362;7.568;2023-03-01T15:00:58;27.40;25.40
51476;DHT22;37554;50.362;7.568;2023-03-01T15:06:27;27.20;25.50
51476;DHT22;37554;50.362;7.568;2023-03-01T15:08:54;27.00;25.00
51476;DHT22;37554;50.362;7.568;2023-03-01T15:11:31;27.00;25.50
51476;DHT22;37554;50.362;7.568;2023-03-01T15:13:59;26.90;25.50
51476;DHT22;37554;50.362;7.568;2023-03-01T15:16:31;26.70;25.50
51476;DHT22;37554;50.362;7.568;2023-03-01T15:19:00;26.60;25.60
51476;DHT22;37554;50.362;7.568;2023-03-01T15:21:35;26.60;25.80
51476;DHT22;37554;50.362;7.568;2023-03-01T15:24:17;26.40;25.90
51476;DHT22;37554;50.362;7.568;2023-03-01T15:27:14;26.30;25.70
51476;DHT22;37554;50.362;7.568;2023-03-01T15:29:49;26.20;25.60
51476;DHT22;37554;50.362;7.568;2023-03-01T15:32:41;26.10;25.80
51476;DHT22;37554;50.362;7.568;2023-03-01T15:35:39;26.00;25.90
51476;DHT22;37554;50.362;7.568;2023-03-01T15:41:45;25.70;26.10
51476;DHT22;37554;50.362;7.568;2023-03-01T15:44:29;25.60;25.70
51476;DHT22;37554;50.362;7.568;2023-03-01T15:46:54;25.50;25.80
51476;DHT22;37554;50.362;7.568;2023-03-01T15:49:33;25.40;26.00
51476;DHT22;37554;50.362;7.568;2023-03-01T15:52:01;25.30;25.90
51476;DHT22;37554;50.362;7.568;2023-03-01T15:54:27;25.10;25.80
51476;DHT22;37554;50.362;7.568;2023-03-01T15:56:53;25.10;25.80
51476;DHT22;37554;50.362;7.568;2023-03-01T15:59:19;25.10;25.90
51476;DHT22;37554;50.362;7.568;2023-03-01T16:01:45;25.00;25.80
51476;DHT22;37554;50.362;7.568;2023-03-01T16:04:16;24.90;25.80
51476;DHT22;37554;50.362;7.568;2023-03-01T16:06:52;24.80;25.70
51476;DHT22;37554;50.362;7.568;2023-03-01T16:09:23;24.60;25.70
51476;DHT22;37554;50.362;7.568;2023-03-01T16:11:49;24.50;25.80
51476;DHT22;37554;50.362;7.568;2023-03-01T16:14:15;24.40;25.80
51476;DHT22;37554;50.362;7.568;2023-03-01T16:16:42;24.20;25.80
51476;DHT22;37554;50.362;7.568;2023-03-01T16:19:08;24.10;25.80
51476;DHT22;37554;50.362;7.568;2023-03-01T16:21:33;24.00;25.90
51476;DHT22;37554;50.362;7.568;2023-03-01T16:23:59;24.00;26.20
51476;DHT22;37554;50.362;7.568;2023-03-01T16:26:24;24.00;26.30
51476;DHT22;37554;50.362;7.568;2023-03-01T16:28:50;24.00;26.40
51476;DHT22;37554;50.362;7.568;2023-03-01T16:31:20;24.00;26.60
51476;DHT22;37554;50.362;7.568;2023-03-01T16:33:45;24.00;26.70
51476;DHT22;37554;50.362;7.568;2023-03-01T16:36:17;23.90;26.70
51476;DHT22;37554;50.362;7.568;2023-03-01T16:38:43;23.80;26.80
51476;DHT22;37554;50.362;7.568;2023-03-01T16:41:15;23.80;27.00
51476;DHT22;37554;50.362;7.568;2023-03-01T16:43:41;23.70;27.10
51476;DHT22;37554;50.362;7.568;2023-03-01T16:46:14;23.60;27.20
51476;DHT22;37554;50.362;7.568;2023-03-01T16:48:41;23.50;27.40
51476;DHT22;37554;50.362;7.568;2023-03-01T16:51:08;23.40;27.50
51476;DHT22;37554;50.362;7.568;2023-03-01T16:53:34;23.40;27.70
51476;DHT22;37554;50.362;7.568;2023-03-01T16:56:03;23.30;27.70
51476;DHT22;37554;50.362;7.568;2023-03-01T16:58:29;23.10;27.80
51476;DHT22;37554;50.362;7.568;2023-03-01T17:00:55;23.10;28.00
51476;DHT22;37554;50.362;7.568;2023-03-01T17:03:23;23.00;28.00
51476;DHT22;37554;50.362;7.568;2023-03-01T17:05:49;22.90;28.10
51476;DHT22;37554;50.362;7.568;2023-03-01T17:08:16;22.70;28.00
51476;DHT22;37554;50.362;7.568;2023-03-01T17:10:42;22.70;28.20
51476;DHT22;37554;50.362;7.568;2023-03-01T17:13:09;22.60;28.20
51476;DHT22;37554;50.362;7.568;2023-03-01T17:15:37;22.50;28.40
51476;DHT22;37554;50.362;7.568;2023-03-01T17:18:02;22.40;28.30
51476;DHT22;37554;50.362;7.568;2023-03-01T17:20:28;22.30;28.40
51476;DHT22;37554;50.362;7.568;2023-03-01T17:22:54;22.20;28.40
51476;DHT22;37554;50.362;7.568;2023-03-01T17:25:20;22.10;28.40